sensor_id;sensor_type;location;lat;lon;timestamp;temperature;humidity
33943;DHT22;66763;47.856;17.462;2023-03-25T00:01:09;20.40;50.70
33943;DHT22;66763;47.856;17.462;2023-03-25T00:03:38;20.30;50.60
33943;DHT22;66763;47.856;17.462;2023-03-25T00:06:08;20.40;50.60
33943;DHT22;66763;47.856;17.462;2023-03-25T00:08:33;20.40;50.60
33943;DHT22;66763;47.856;17.462;2023-03-25T00:11:00;20.40;50.60
33943;DHT22;66763;47.856;17.462;2023-03-25T00:13:26;20.40;50.70
33943;DHT22;66763;47.856;17.462;2023-03-25T00:15:52;20.40;50.70
33943;DHT22;66763;47.856;17.462;2023-03-25T00:18:18;20.40;50.70
33943;DHT22;66763;47.856;17.462;2023-03-25T00:20:45;20.40;50.70
33943;DHT22;66763;47.856;17.462;2023-03-25T00:23:14;20.40;50.70
33943;DHT22;66763;47.856;17.462;2023-03-25T00:25:39;20.40;50.70
33943;DHT22;66763;47.856;17.462;2023-03-25T00:28:06;20.40;50.70
33943;DHT22;66763;47.856;17.462;2023-03-25T00:30:32;20.50;50.70
33943;DHT22;66763;47.856;17.462;2023-03-25T00:32:58;20.50;50.70
33943;DHT22;66763;47.856;17.462;2023-03-25T00:35:26;20.50;50.70
33943;DHT22;66763;47.856;17.462;2023-03-25T00:37:53;20.50;50.70
33943;DHT22;66763;47.856;17.462;2023-03-25T00:40:25;20.50;50.70
33943;DHT22;66763;47.856;17.462;2023-03-25T00:42:52;20.50;50.70
33943;DHT22;66763;47.856;17.462;2023-03-25T00:45:18;20.50;50.70
33943;DHT22;66763;47.856;17.462;2023-03-25T00:47:44;20.50;50.70
33943;DHT22;66763;47.856;17.462;2023-03-25T00:50:10;20.50;50.70
33943;DHT22;66763;47.856;17.462;2023-03-25T00:52:35;20.50;50.70
33943;DHT22;66763;47.856;17.462;2023-03-25T00:55:01;20.50;50.70
33943;DHT22;66763;47.856;17.462;2023-03-25T00:57:27;20.60;51.40
33943;DHT22;66763;47.856;17.462;2023-03-25T00:59:52;20.60;50.80
33943;DHT22;66763;47.856;17.462;2023-03-25T01:02:18;20.60;50.80
33943;DHT22;66763;47.856;17.462;2023-03-25T01:04:46;20.60;50.80
33943;DHT22;66763;47.856;17.462;2023-03-25T01:07:14;20.60;50.80
33943;DHT22;66763;47.856;17.462;2023-03-25T01:09:40;20.60;50.80
33943;DHT22;66763;47.856;17.462;2023-03-25T01:12:06;20.60;50.80
33943;DHT22;66763;47.856;17.462;2023-03-25T01:14:31;20.60;50.80
33943;DHT22;66763;47.856;17.462;2023-03-25T01:16:57;20.60;50.80
33943;DHT22;66763;47.856;17.462;2023-03-25T01:19:23;20.60;50.80
33943;DHT22;66763;47.856;17.462;2023-03-25T01:21:48;20.60;50.80
33943;DHT22;66763;47.856;17.462;2023-03-25T01:24:14;20.60;50.80
33943;DHT22;66763;47.856;17.462;2023-03-25T01:26:40;20.60;50.80
33943;DHT22;66763;47.856;17.462;2023-03-25T01:29:08;20.60;50.80
33943;DHT22;66763;47.856;17.462;2023-03-25T01:31:33;20.60;50.80
33943;DHT22;66763;47.856;17.462;2023-03-25T01:33:59;20.60;50.80
33943;DHT22;66763;47.856;17.462;2023-03-25T01:36:25;20.60;50.70
33943;DHT22;66763;47.856;17.462;2023-03-25T01:38:53;20.60;50.80
33943;DHT22;66763;47.856;17.462;2023-03-25T01:41:19;20.60;50.80
33943;DHT22;66763;47.856;17.462;2023-03-25T01:44:07;20.70;50.80
33943;DHT22;66763;47.856;17.462;2023-03-25T01:46:34;20.70;50.80
33943;DHT22;66763;47.856;17.462;2023-03-25T01:49:00;20.70;50.80
33943;DHT22;66763;47.856;17.462;2023-03-25T01:51:28;20.70;50.80
33943;DHT22;66763;47.856;17.462;2023-03-25T01:53:54;20.70;50.80
33943;DHT22;66763;47.856;17.462;2023-03-25T01:56:21;20.70;50.80
33943;DHT22;66763;47.856;17.462;2023-03-25T01:58:48;20.70;50.70
33943;DHT22;66763;47.856;17.462;2023-03-25T02:01:14;20.70;50.70
33943;DHT22;66763;47.856;17.462;2023-03-25T02:03:41;20.70;50.60
33943;DHT22;66763;47.856;17.462;2023-03-25T02:06:14;20.70;50.60
33943;DHT22;66763;47.856;17.462;2023-03-25T02:08:41;20.70;50.60
33943;DHT22;66763;47.856;17.462;2023-03-25T02:11:08;20.70;50.60
33943;DHT22;66763;47.856;17.462;2023-03-25T02:13:34;20.70;50.60
33943;DHT22;66763;47.856;17.462;2023-03-25T02:18:35;20.70;50.60
33943;DHT22;66763;47.856;17.462;2023-03-25T02:23:36;20.70;50.60
33943;DHT22;66763;47.856;17.462;2023-03-25T02:41:42;20.80;50.30
33943;DHT22;66763;47.856;17.462;2023-03-25T02:46:48;20.80;50.20
33943;DHT22;66763;47.856;17.462;2023-03-25T02:49:20;20.80;50.10
33943;DHT22;66763;47.856;17.462;2023-03-25T02:52:33;20.80;50.10
33943;DHT22;66763;47.856;17.462;2023-03-25T02:54:33;20.80;50.00
33943;DHT22;66763;47.856;17.462;2023-03-25T02:57:01;20.80;50.00
33943;DHT22;66763;47.856;17.462;2023-03-25T02:59:28;20.80;49.90
33943;DHT22;66763;47.856;17.462;2023-03-25T03:01:58;20.80;49.90
33943;DHT22;66763;47.856;17.462;2023-03-25T03:04:24;20.80;49.80
33943;DHT22;66763;47.856;17.462;2023-03-25T03:06:50;20.80;49.70
33943;DHT22;66763;47.856;17.462;2023-03-25T03:27:46;20.80;49.20
33943;DHT22;66763;47.856;17.462;2023-03-25T03:35:21;20.80;49.10
33943;DHT22;66763;47.856;17.462;2023-03-25T03:37:50;20.80;49.00
33943;DHT22;66763;47.856;17.462;2023-03-25T03:40:17;20.80;49.00
33943;DHT22;66763;47.856;17.462;2023-03-25T03:42:46;20.80;49.00
33943;DHT22;66763;47.856;17.462;2023-03-25T03:47:52;20.80;48.90
33943;DHT22;66763;47.856;17.462;2023-03-25T03:50:20;20.80;49.00
33943;DHT22;66763;47.856;17.462;2023-03-25T03:53:30;20.80;48.80
33943;DHT22;66763;47.856;17.462;2023-03-25T03:55:38;20.90;48.90
33943;DHT22;66763;47.856;17.462;2023-03-25T03:58:11;20.90;48.90
33943;DHT22;66763;47.856;17.462;2023-03-25T04:00:42;20.80;48.80
33943;DHT22;66763;47.856;17.462;2023-03-25T04:03:27;20.90;48.80
33943;DHT22;66763;47.856;17.462;2023-03-25T04:05:59;20.90;48.80
33943;DHT22;66763;47.856;17.462;2023-03-25T04:08:30;20.90;48.80
33943;DHT22;66763;47.856;17.462;2023-03-25T04:11:00;20.90;48.80
33943;DHT22;66763;47.856;17.462;2023-03-25T04:13:33;20.90;48.70
33943;DHT22;66763;47.856;17.462;2023-03-25T04:15:59;20.90;48.70
33943;DHT22;66763;47.856;17.462;2023-03-25T04:18:26;20.90;48.60
33943;DHT22;66763;47.856;17.462;2023-03-25T04:20:53;20.90;48.70
33943;DHT22;66763;47.856;17.462;2023-03-25T04:23:19;20.90;48.70
33943;DHT22;66763;47.856;17.462;2023-03-25T04:25:45;20.90;48.60
33943;DHT22;66763;47.856;17.462;2023-03-25T04:28:19;20.90;48.60
33943;DHT22;66763;47.856;17.462;2023-03-25T04:30:46;20.90;48.60
33943;DHT22;66763;47.856;17.462;2023-03-25T04:33:13;20.90;48.60
33943;DHT22;66763;47.856;17.462;2023-03-25T04:35:39;20.90;48.60
33943;DHT22;66763;47.856;17.462;2023-03-25T04:38:05;21.00;48.60
33943;DHT22;66763;47.856;17.462;2023-03-25T04:40:31;20.90;48.60
33943;DHT22;66763;47.856;17.462;2023-03-25T04:42:57;20.90;48.50
33943;DHT22;66763;47.856;17.462;2023-03-25T04:45:23;20.90;48.50
33943;DHT22;66763;47.856;17.462;2023-03-25T04:47:49;21.00;48.60
33943;DHT22;66763;47.856;17.462;2023-03-25T04:50:26;21.00;48.40
33943;DHT22;66763;47.856;17.462;2023-03-25T04:52:52;21.00;48.50
33943;DHT22;66763;47.856;17.462;2023-03-25T04:55:21;21.00;48.40
33943;DHT22;66763;47.856;17.462;2023-03-25T04:57:48;21.00;48.40
33943;DHT22;66763;47.856;17.462;2023-03-25T05:00:16;20.90;48.30
33943;DHT22;66763;47.856;17.462;2023-03-25T05:02:45;21.00;48.40
33943;DHT22;66763;47.856;17.462;2023-03-25T05:05:17;21.00;48.30
33943;DHT22;66763;47.856;17.462;2023-03-25T05:07:44;21.00;48.30
33943;DHT22;66763;47.856;17.462;2023-03-25T05:10:10;21.00;48.30
33943;DHT22;66763;47.856;17.462;2023-03-25T05:12:36;21.00;48.30
33943;DHT22;66763;47.856;17.462;2023-03-25T05:15:02;21.00;48.30
33943;DHT22;66763;47.856;17.462;2023-03-25T05:17:28;21.00;48.20
33943;DHT22;66763;47.856;17.462;2023-03-25T05:19:54;21.00;48.20
33943;DHT22;66763;47.856;17.462;2023-03-25T05:22:21;21.00;48.20
33943;DHT22;66763;47.856;17.462;2023-03-25T05:24:47;21.00;48.20
33943;DHT22;66763;47.856;17.462;2023-03-25T05:27:12;21.00;48.20
33943;DHT22;66763;47.856;17.462;2023-03-25T05:29:38;20.90;48.10
33943;DHT22;66763;47.856;17.462;2023-03-25T05:32:04;20.90;48.10
33943;DHT22;66763;47.856;17.462;2023-03-25T05:34:29;20.90;48.10
33943;DHT22;66763;47.856;17.462;2023-03-25T05:36:55;20.90;48.20
33943;DHT22;66763;47.856;17.462;2023-03-25T05:39:21;20.80;48.10
33943;DHT22;66763;47.856;17.462;2023-03-25T05:41:47;20.80;48.20
33943;DHT22;66763;47.856;17.462;2023-03-25T05:44:12;20.70;48.10
33943;DHT22;66763;47.856;17.462;2023-03-25T05:46:43;20.70;48.20
33943;DHT22;66763;47.856;17.462;2023-03-25T05:49:08;20.70;48.30
33943;DHT22;66763;47.856;17.462;2023-03-25T05:51:34;20.60;48.30
33943;DHT22;66763;47.856;17.462;2023-03-25T05:54:03;20.60;48.40
33943;DHT22;66763;47.856;17.462;2023-03-25T05:56:34;20.50;48.40
33943;DHT22;66763;47.856;17.462;2023-03-25T05:59:01;20.50;48.50
33943;DHT22;66763;47.856;17.462;2023-03-25T06:01:27;20.50;48.50
33943;DHT22;66763;47.856;17.462;2023-03-25T06:03:53;20.40;48.50
33943;DHT22;66763;47.856;17.462;2023-03-25T06:06:18;20.40;48.60
33943;DHT22;66763;47.856;17.462;2023-03-25T06:08:45;20.30;48.60
33943;DHT22;66763;47.856;17.462;2023-03-25T06:11:11;20.30;48.70
33943;DHT22;66763;47.856;17.462;2023-03-25T06:13:39;20.30;48.70
33943;DHT22;66763;47.856;17.462;2023-03-25T06:16:08;20.20;48.80
33943;DHT22;66763;47.856;17.462;2023-03-25T06:18:37;20.20;48.80
33943;DHT22;66763;47.856;17.462;2023-03-25T06:21:03;20.20;48.90
33943;DHT22;66763;47.856;17.462;2023-03-25T06:23:29;20.10;48.80
33943;DHT22;66763;47.856;17.462;2023-03-25T06:25:55;20.10;48.90
33943;DHT22;66763;47.856;17.462;2023-03-25T06:28:22;20.00;48.90
33943;DHT22;66763;47.856;17.462;2023-03-25T06:30:48;20.00;48.80
33943;DHT22;66763;47.856;17.462;2023-03-25T06:33:14;20.10;48.80
33943;DHT22;66763;47.856;17.462;2023-03-25T06:35:40;20.10;48.70
33943;DHT22;66763;47.856;17.462;2023-03-25T06:38:07;20.20;48.70
33943;DHT22;66763;47.856;17.462;2023-03-25T06:40:34;20.30;48.60
33943;DHT22;66763;47.856;17.462;2023-03-25T06:43:04;20.30;48.50
33943;DHT22;66763;47.856;17.462;2023-03-25T06:45:30;20.40;48.50
33943;DHT22;66763;47.856;17.462;2023-03-25T06:47:56;20.40;48.40
33943;DHT22;66763;47.856;17.462;2023-03-25T06:50:21;20.50;48.40
33943;DHT22;66763;47.856;17.462;2023-03-25T06:52:47;20.50;48.30
33943;DHT22;66763;47.856;17.462;2023-03-25T06:55:12;20.60;48.30
33943;DHT22;66763;47.856;17.462;2023-03-25T06:57:38;20.60;48.20
33943;DHT22;66763;47.856;17.462;2023-03-25T07:00:04;20.60;48.20
33943;DHT22;66763;47.856;17.462;2023-03-25T07:02:30;20.60;48.20
33943;DHT22;66763;47.856;17.462;2023-03-25T07:04:56;20.70;48.30
33943;DHT22;66763;47.856;17.462;2023-03-25T07:07:21;20.70;48.30
33943;DHT22;66763;47.856;17.462;2023-03-25T07:09:53;20.70;48.30
33943;DHT22;66763;47.856;17.462;2023-03-25T07:12:20;20.70;48.30
33943;DHT22;66763;47.856;17.462;2023-03-25T07:14:52;20.80;48.50
33943;DHT22;66763;47.856;17.462;2023-03-25T07:17:18;20.80;48.80
33943;DHT22;66763;47.856;17.462;2023-03-25T07:19:43;20.90;48.80
33943;DHT22;66763;47.856;17.462;2023-03-25T07:22:09;20.80;47.20
33943;DHT22;66763;47.856;17.462;2023-03-25T07:24:35;20.70;47.20
33943;DHT22;66763;47.856;17.462;2023-03-25T07:27:00;20.80;47.00
33943;DHT22;66763;47.856;17.462;2023-03-25T07:29:26;20.80;47.00
33943;DHT22;66763;47.856;17.462;2023-03-25T07:31:51;20.80;47.30
33943;DHT22;66763;47.856;17.462;2023-03-25T07:34:17;20.90;47.70
33943;DHT22;66763;47.856;17.462;2023-03-25T07:36:42;20.90;47.90
33943;DHT22;66763;47.856;17.462;2023-03-25T07:39:08;21.00;47.90
33943;DHT22;66763;47.856;17.462;2023-03-25T07:41:33;21.00;47.90
33943;DHT22;66763;47.856;17.462;2023-03-25T07:43:58;21.00;48.10
33943;DHT22;66763;47.856;17.462;2023-03-25T07:46:24;21.10;48.10
33943;DHT22;66763;47.856;17.462;2023-03-25T07:48:50;21.10;48.20
33943;DHT22;66763;47.856;17.462;2023-03-25T07:51:15;21.10;48.20
33943;DHT22;66763;47.856;17.462;2023-03-25T07:53:41;21.10;48.20
33943;DHT22;66763;47.856;17.462;2023-03-25T07:56:09;21.10;48.20
33943;DHT22;66763;47.856;17.462;2023-03-25T07:58:34;21.10;48.30
33943;DHT22;66763;47.856;17.462;2023-03-25T08:01:00;21.10;48.30
33943;DHT22;66763;47.856;17.462;2023-03-25T08:03:26;21.00;48.40
33943;DHT22;66763;47.856;17.462;2023-03-25T08:05:52;21.00;48.70
33943;DHT22;66763;47.856;17.462;2023-03-25T08:08:18;21.00;48.90
33943;DHT22;66763;47.856;17.462;2023-03-25T08:10:44;21.00;49.50
33943;DHT22;66763;47.856;17.462;2023-03-25T08:13:10;21.00;49.40
33943;DHT22;66763;47.856;17.462;2023-03-25T08:15:36;20.90;49.30
33943;DHT22;66763;47.856;17.462;2023-03-25T08:18:02;20.90;49.10
33943;DHT22;66763;47.856;17.462;2023-03-25T08:20:29;20.90;48.90
33943;DHT22;66763;47.856;17.462;2023-03-25T08:22:54;20.80;48.80
33943;DHT22;66763;47.856;17.462;2023-03-25T08:25:22;20.70;48.80
33943;DHT22;66763;47.856;17.462;2023-03-25T08:27:48;20.70;48.90
33943;DHT22;66763;47.856;17.462;2023-03-25T08:30:14;20.70;49.00
33943;DHT22;66763;47.856;17.462;2023-03-25T08:32:40;20.60;48.90
33943;DHT22;66763;47.856;17.462;2023-03-25T08:35:05;20.60;49.00
33943;DHT22;66763;47.856;17.462;2023-03-25T08:37:31;20.60;49.00
33943;DHT22;66763;47.856;17.462;2023-03-25T08:40:03;20.60;49.10
33943;DHT22;66763;47.856;17.462;2023-03-25T08:42:34;20.50;49.10
33943;DHT22;66763;47.856;17.462;2023-03-25T08:44:59;20.50;49.10
33943;DHT22;66763;47.856;17.462;2023-03-25T08:47:25;20.40;49.20
33943;DHT22;66763;47.856;17.462;2023-03-25T08:49:50;20.40;49.20
33943;DHT22;66763;47.856;17.462;2023-03-25T08:52:16;20.40;49.30
33943;DHT22;66763;47.856;17.462;2023-03-25T08:54:41;20.40;49.30
33943;DHT22;66763;47.856;17.462;2023-03-25T08:57:07;20.30;49.40
33943;DHT22;66763;47.856;17.462;2023-03-25T08:59:32;20.30;49.40
33943;DHT22;66763;47.856;17.462;2023-03-25T09:01:58;20.20;49.40
33943;DHT22;66763;47.856;17.462;2023-03-25T09:04:24;20.20;49.40
33943;DHT22;66763;47.856;17.462;2023-03-25T09:06:49;20.20;49.40
33943;DHT22;66763;47.856;17.462;2023-03-25T09:09:15;20.20;49.50
33943;DHT22;66763;47.856;17.462;2023-03-25T09:11:42;20.20;49.50
33943;DHT22;66763;47.856;17.462;2023-03-25T09:14:07;20.20;49.60
33943;DHT22;66763;47.856;17.462;2023-03-25T09:16:33;20.10;49.60
33943;DHT22;66763;47.856;17.462;2023-03-25T09:18:59;20.10;49.60
33943;DHT22;66763;47.856;17.462;2023-03-25T09:21:24;20.10;49.70
33943;DHT22;66763;47.856;17.462;2023-03-25T09:23:50;20.10;49.70
33943;DHT22;66763;47.856;17.462;2023-03-25T09:26:15;20.00;49.70
33943;DHT22;66763;47.856;17.462;2023-03-25T09:28:41;20.00;49.70
33943;DHT22;66763;47.856;17.462;2023-03-25T09:31:06;20.00;49.70
33943;DHT22;66763;47.856;17.462;2023-03-25T09:33:34;20.00;49.80
33943;DHT22;66763;47.856;17.462;2023-03-25T09:36:00;19.90;49.80
33943;DHT22;66763;47.856;17.462;2023-03-25T09:38:26;19.90;49.80
33943;DHT22;66763;47.856;17.462;2023-03-25T09:40:52;19.90;49.90
33943;DHT22;66763;47.856;17.462;2023-03-25T09:43:23;19.80;49.80
33943;DHT22;66763;47.856;17.462;2023-03-25T09:45:50;19.90;49.90
33943;DHT22;66763;47.856;17.462;2023-03-25T09:50:42;19.80;49.80
33943;DHT22;66763;47.856;17.462;2023-03-25T09:55:38;19.80;49.90
33943;DHT22;66763;47.856;17.462;2023-03-25T10:00:39;19.70;49.80
33943;DHT22;66763;47.856;17.462;2023-03-25T10:10:45;19.70;49.90
33943;DHT22;66763;47.856;17.462;2023-03-25T10:16:00;19.60;49.90
33943;DHT22;66763;47.856;17.462;2023-03-25T10:20:58;19.70;50.00
33943;DHT22;66763;47.856;17.462;2023-03-25T10:23:44;19.60;50.10
33943;DHT22;66763;47.856;17.462;2023-03-25T10:29:20;19.60;50.00
33943;DHT22;66763;47.856;17.462;2023-03-25T10:31:50;19.60;50.00
33943;DHT22;66763;47.856;17.462;2023-03-25T10:34:18;19.60;49.90
33943;DHT22;66763;47.856;17.462;2023-03-25T10:36:53;19.60;50.00
33943;DHT22;66763;47.856;17.462;2023-03-25T10:39:22;19.50;50.00
33943;DHT22;66763;47.856;17.462;2023-03-25T10:41:56;19.50;50.00
33943;DHT22;66763;47.856;17.462;2023-03-25T10:44:23;19.50;50.00
33943;DHT22;66763;47.856;17.462;2023-03-25T10:46:51;19.50;50.00
33943;DHT22;66763;47.856;17.462;2023-03-25T10:49:19;19.50;50.00
33943;DHT22;66763;47.856;17.462;2023-03-25T10:51:45;19.50;50.00
33943;DHT22;66763;47.856;17.462;2023-03-25T10:54:12;19.50;50.00
33943;DHT22;66763;47.856;17.462;2023-03-25T10:59:12;19.50;50.00
33943;DHT22;66763;47.856;17.462;2023-03-25T11:01:39;19.50;49.90
33943;DHT22;66763;47.856;17.462;2023-03-25T11:04:06;19.50;50.00
33943;DHT22;66763;47.856;17.462;2023-03-25T11:06:33;19.50;50.00
33943;DHT22;66763;47.856;17.462;2023-03-25T11:11:32;19.40;49.90
33943;DHT22;66763;47.856;17.462;2023-03-25T11:13:58;19.40;49.80
33943;DHT22;66763;47.856;17.462;2023-03-25T11:16:23;19.40;49.90
33943;DHT22;66763;47.856;17.462;2023-03-25T11:18:50;19.40;49.90
33943;DHT22;66763;47.856;17.462;2023-03-25T11:21:16;19.40;49.90
33943;DHT22;66763;47.856;17.462;2023-03-25T11:23:43;19.40;50.00
33943;DHT22;66763;47.856;17.462;2023-03-25T11:26:19;19.30;49.90
33943;DHT22;66763;47.856;17.462;2023-03-25T11:28:47;19.30;49.90
33943;DHT22;66763;47.856;17.462;2023-03-25T11:31:17;19.40;49.90
33943;DHT22;66763;47.856;17.462;2023-03-25T11:33:44;19.30;50.00
33943;DHT22;66763;47.856;17.462;2023-03-25T11:38:46;19.30;50.00
33943;DHT22;66763;47.856;17.462;2023-03-25T11:41:15;19.30;50.00
33943;DHT22;66763;47.856;17.462;2023-03-25T11:43:40;19.20;50.00
33943;DHT22;66763;47.856;17.462;2023-03-25T11:46:10;19.20;50.00
33943;DHT22;66763;47.856;17.462;2023-03-25T11:48:37;19.30;50.00
33943;DHT22;66763;47.856;17.462;2023-03-25T11:51:04;19.30;50.00
33943;DHT22;66763;47.856;17.462;2023-03-25T11:53:31;19.30;49.90
33943;DHT22;66763;47.856;17.462;2023-03-25T11:56:05;19.50;50.00
33943;DHT22;66763;47.856;17.462;2023-03-25T11:58:31;19.60;49.90
33943;DHT22;66763;47.856;17.462;2023-03-25T12:03:42;19.70;49.70
33943;DHT22;66763;47.856;17.462;2023-03-25T12:08:41;19.80;49.40
33943;DHT22;66763;47.856;17.462;2023-03-25T12:11:13;19.90;47.80
33943;DHT22;66763;47.856;17.462;2023-03-25T12:13:50;19.90;46.40
33943;DHT22;66763;47.856;17.462;2023-03-25T12:18:48;19.90;46.00
33943;DHT22;66763;47.856;17.462;2023-03-25T12:26:09;20.10;47.20
33943;DHT22;66763;47.856;17.462;2023-03-25T12:34:12;20.10;46.50
33943;DHT22;66763;47.856;17.462;2023-03-25T12:36:54;20.20;46.10
33943;DHT22;66763;47.856;17.462;2023-03-25T12:44:46;20.50;48.50
33943;DHT22;66763;47.856;17.462;2023-03-25T12:50:06;20.70;48.70
33943;DHT22;66763;47.856;17.462;2023-03-25T12:52:39;20.70;48.50
33943;DHT22;66763;47.856;17.462;2023-03-25T13:00:17;20.70;48.50
33943;DHT22;66763;47.856;17.462;2023-03-25T13:05:20;20.70;48.70
33943;DHT22;66763;47.856;17.462;2023-03-25T13:07:50;20.70;48.60
33943;DHT22;66763;47.856;17.462;2023-03-25T13:10:18;20.70;49.00
33943;DHT22;66763;47.856;17.462;2023-03-25T13:17:43;20.40;47.10
33943;DHT22;66763;47.856;17.462;2023-03-25T13:20:10;20.40;47.80
33943;DHT22;66763;47.856;17.462;2023-03-25T13:22:43;20.30;47.10
33943;DHT22;66763;47.856;17.462;2023-03-25T13:28:03;20.30;47.40
33943;DHT22;66763;47.856;17.462;2023-03-25T13:30:32;20.20;47.70
33943;DHT22;66763;47.856;17.462;2023-03-25T13:33:06;20.20;47.80
33943;DHT22;66763;47.856;17.462;2023-03-25T13:38:18;20.30;47.90
33943;DHT22;66763;47.856;17.462;2023-03-25T13:41:05;20.30;47.90
33943;DHT22;66763;47.856;17.462;2023-03-25T13:43:32;20.40;47.90
33943;DHT22;66763;47.856;17.462;2023-03-25T13:50:57;20.60;47.90
33943;DHT22;66763;47.856;17.462;2023-03-25T13:56:00;20.60;47.80
33943;DHT22;66763;47.856;17.462;2023-03-25T14:09:16;20.80;47.70
33943;DHT22;66763;47.856;17.462;2023-03-25T14:14:16;20.90;47.70
33943;DHT22;66763;47.856;17.462;2023-03-25T14:16:44;20.90;47.60
33943;DHT22;66763;47.856;17.462;2023-03-25T14:19:16;20.90;47.60
33943;DHT22;66763;47.856;17.462;2023-03-25T14:21:49;21.00;47.50
33943;DHT22;66763;47.856;17.462;2023-03-25T14:26:50;21.00;47.50
33943;DHT22;66763;47.856;17.462;2023-03-25T14:34:29;21.10;47.50
33943;DHT22;66763;47.856;17.462;2023-03-25T14:44:41;21.20;47.50
33943;DHT22;66763;47.856;17.462;2023-03-25T14:49:48;21.20;47.50
33943;DHT22;66763;47.856;17.462;2023-03-25T14:52:15;21.20;47.40
33943;DHT22;66763;47.856;17.462;2023-03-25T14:54:43;21.20;47.50
33943;DHT22;66763;47.856;17.462;2023-03-25T14:57:16;21.30;47.50
33943;DHT22;66763;47.856;17.462;2023-03-25T14:59:44;21.30;48.10
33943;DHT22;66763;47.856;17.462;2023-03-25T15:02:21;21.30;47.50
33943;DHT22;66763;47.856;17.462;2023-03-25T15:04:55;21.30;47.50
33943;DHT22;66763;47.856;17.462;2023-03-25T15:10:07;21.40;47.60
33943;DHT22;66763;47.856;17.462;2023-03-25T15:12:42;21.40;47.60
33943;DHT22;66763;47.856;17.462;2023-03-25T15:15:24;21.40;47.60
33943;DHT22;66763;47.856;17.462;2023-03-25T15:17:50;21.40;47.60
33943;DHT22;66763;47.856;17.462;2023-03-25T15:25:33;21.50;47.60
33943;DHT22;66763;47.856;17.462;2023-03-25T15:28:09;21.50;47.60
33943;DHT22;66763;47.856;17.462;2023-03-25T15:38:17;21.40;47.80
33943;DHT22;66763;47.856;17.462;2023-03-25T15:41:06;21.30;47.80
33943;DHT22;66763;47.856;17.462;2023-03-25T15:51:30;21.20;48.00
33943;DHT22;66763;47.856;17.462;2023-03-25T15:56:30;21.20;48.10
33943;DHT22;66763;47.856;17.462;2023-03-25T15:59:03;21.00;48.10
33943;DHT22;66763;47.856;17.462;2023-03-25T16:01:30;21.00;48.10
33943;DHT22;66763;47.856;17.462;2023-03-25T16:03:58;21.00;48.20
33943;DHT22;66763;47.856;17.462;2023-03-25T16:06:24;21.00;48.30
33943;DHT22;66763;47.856;17.462;2023-03-25T16:08:50;20.90;48.30
33943;DHT22;66763;47.856;17.462;2023-03-25T16:13:45;20.80;48.40
33943;DHT22;66763;47.856;17.462;2023-03-25T16:16:14;20.80;48.50
33943;DHT22;66763;47.856;17.462;2023-03-25T16:18:42;20.80;48.50
33943;DHT22;66763;47.856;17.462;2023-03-25T16:21:10;20.70;48.60
33943;DHT22;66763;47.856;17.462;2023-03-25T16:23:36;20.70;48.60
33943;DHT22;66763;47.856;17.462;2023-03-25T16:26:02;20.70;48.70
33943;DHT22;66763;47.856;17.462;2023-03-25T16:28:33;20.70;48.70
33943;DHT22;66763;47.856;17.462;2023-03-25T16:30:59;20.70;48.70
33943;DHT22;66763;47.856;17.462;2023-03-25T16:33:28;20.60;48.80
33943;DHT22;66763;47.856;17.462;2023-03-25T16:35:58;20.60;48.80
33943;DHT22;66763;47.856;17.462;2023-03-25T16:38:24;20.50;48.80
33943;DHT22;66763;47.856;17.462;2023-03-25T16:40:50;20.60;48.80
33943;DHT22;66763;47.856;17.462;2023-03-25T16:43:18;20.50;48.90
33943;DHT22;66763;47.856;17.462;2023-03-25T16:45:44;20.40;48.80
33943;DHT22;66763;47.856;17.462;2023-03-25T16:48:15;20.40;48.80
33943;DHT22;66763;47.856;17.462;2023-03-25T16:50:41;20.40;49.10
33943;DHT22;66763;47.856;17.462;2023-03-25T16:53:09;20.40;49.10
33943;DHT22;66763;47.856;17.462;2023-03-25T16:55:47;20.40;49.00
33943;DHT22;66763;47.856;17.462;2023-03-25T16:58:23;20.50;49.00
33943;DHT22;66763;47.856;17.462;2023-03-25T17:00:51;20.50;49.00
33943;DHT22;66763;47.856;17.462;2023-03-25T17:03:18;20.70;49.10
33943;DHT22;66763;47.856;17.462;2023-03-25T17:06:03;20.90;48.90
33943;DHT22;66763;47.856;17.462;2023-03-25T17:08:31;21.00;48.70
33943;DHT22;66763;47.856;17.462;2023-03-25T17:10:56;21.10;48.70
33943;DHT22;66763;47.856;17.462;2023-03-25T17:13:27;21.30;48.80
33943;DHT22;66763;47.856;17.462;2023-03-25T17:15:54;21.40;49.10
33943;DHT22;66763;47.856;17.462;2023-03-25T17:18:22;21.60;49.60
33943;DHT22;66763;47.856;17.462;2023-03-25T17:20:49;21.70;49.70
33943;DHT22;66763;47.856;17.462;2023-03-25T17:23:19;21.80;50.10
33943;DHT22;66763;47.856;17.462;2023-03-25T17:26:05;21.90;50.20
33943;DHT22;66763;47.856;17.462;2023-03-25T17:28:33;22.00;51.00
33943;DHT22;66763;47.856;17.462;2023-03-25T17:33:51;22.20;50.90
33943;DHT22;66763;47.856;17.462;2023-03-25T17:36:16;22.30;50.80
33943;DHT22;66763;47.856;17.462;2023-03-25T17:38:44;22.30;50.30
33943;DHT22;66763;47.856;17.462;2023-03-25T17:41:10;22.40;50.30
33943;DHT22;66763;47.856;17.462;2023-03-25T17:43:41;22.40;49.90
33943;DHT22;66763;47.856;17.462;2023-03-25T17:46:07;22.40;49.90
33943;DHT22;66763;47.856;17.462;2023-03-25T17:48:33;22.40;50.00
33943;DHT22;66763;47.856;17.462;2023-03-25T17:50:58;22.40;50.10
33943;DHT22;66763;47.856;17.462;2023-03-25T17:53:24;22.40;50.20
33943;DHT22;66763;47.856;17.462;2023-03-25T17:55:51;22.40;50.50
33943;DHT22;66763;47.856;17.462;2023-03-25T17:58:18;22.40;50.50
33943;DHT22;66763;47.856;17.462;2023-03-25T18:00:44;22.30;50.50
33943;DHT22;66763;47.856;17.462;2023-03-25T18:03:11;22.30;50.50
33943;DHT22;66763;47.856;17.462;2023-03-25T18:05:37;22.20;50.60
33943;DHT22;66763;47.856;17.462;2023-03-25T18:08:03;22.20;50.30
33943;DHT22;66763;47.856;17.462;2023-03-25T18:10:29;22.10;50.00
33943;DHT22;66763;47.856;17.462;2023-03-25T18:12:55;22.00;49.80
33943;DHT22;66763;47.856;17.462;2023-03-25T18:15:20;22.00;49.90
33943;DHT22;66763;47.856;17.462;2023-03-25T18:17:46;22.00;49.90
33943;DHT22;66763;47.856;17.462;2023-03-25T18:20:16;22.00;49.80
33943;DHT22;66763;47.856;17.462;2023-03-25T18:22:43;22.00;49.80
33943;DHT22;66763;47.856;17.462;2023-03-25T18:25:09;21.90;49.70
33943;DHT22;66763;47.856;17.462;2023-03-25T18:27:36;21.90;49.60
33943;DHT22;66763;47.856;17.462;2023-03-25T18:30:36;21.90;49.90
33943;DHT22;66763;47.856;17.462;2023-03-25T18:32:56;21.80;49.80
33943;DHT22;66763;47.856;17.462;2023-03-25T18:35:22;21.80;49.50